createdAt,value
2023-03-02T00:00:48.846Z,37.57
2023-03-02T00:03:18.270Z,35.57
2023-03-02T00:05:47.679Z,39.47
2023-03-02T00:08:16.327Z,40.97
2023-03-02T00:10:45.789Z,31.43
2023-03-02T00:13:14.166Z,35.07
2023-03-02T00:15:41.897Z,43.27
2023-03-02T00:18:09.555Z,31.00
2023-03-02T00:20:37.163Z,29.13
2023-03-02T00:23:04.819Z,30.73
2023-03-02T00:25:32.444Z,40.93
2023-03-02T00:28:01.484Z,33.40
2023-03-02T00:30:29.253Z,39.40
2023-03-02T00:32:58.410Z,38.70
2023-03-02T00:35:26.959Z,32.80
2023-03-02T00:37:54.690Z,36.47
2023-03-02T00:40:22.400Z,29.77
2023-03-02T00:42:50.076Z,33.37
2023-03-02T00:45:19.316Z,31.60
2023-03-02T00:47:46.969Z,36.67
2023-03-02T00:50:14.794Z,30.20
2023-03-02T00:52:42.476Z,27.47
2023-03-02T00:55:10.873Z,30.17
2023-03-02T00:57:38.529Z,27.50
2023-03-02T01:00:07.527Z,37.43
2023-03-02T01:02:43.866Z,33.40
2023-03-02T01:05:11.745Z,36.03
2023-03-02T01:07:39.448Z,37.60
2023-03-02T01:10:08.212Z,29.47
2023-03-02T01:12:35.919Z,34.63
2023-03-02T01:15:04.341Z,39.53
2023-03-02T01:17:32.034Z,32.27
2023-03-02T01:20:01.077Z,35.27
2023-03-02T01:22:28.732Z,28.00
2023-03-02T01:24:56.371Z,34.87
2023-03-02T01:27:24.008Z,36.30
2023-03-02T01:29:52.031Z,36.33
2023-03-02T01:32:19.742Z,27.20
2023-03-02T01:34:47.472Z,34.50
2023-03-02T01:37:16.540Z,32.70
2023-03-02T01:39:44.196Z,35.67
2023-03-02T01:42:11.879Z,34.87
2023-03-02T01:44:42.713Z,31.80
2023-03-02T01:47:19.524Z,29.17
2023-03-02T01:49:51.129Z,32.33
2023-03-02T01:52:20.649Z,28.00
2023-03-02T01:54:50.116Z,24.90
2023-03-02T01:57:22.439Z,35.97
2023-03-02T01:59:51.881Z,25.63
2023-03-02T02:02:19.620Z,28.40
2023-03-02T02:04:48.994Z,32.20
2023-03-02T02:07:17.017Z,36.57
2023-03-02T02:09:48.104Z,32.53
2023-03-02T02:12:18.015Z,21.90
2023-03-02T02:14:46.025Z,31.37
2023-03-02T02:17:14.349Z,49.57
2023-03-02T02:19:58.192Z,61.83
2023-03-02T02:22:36.271Z,44.97
2023-03-02T02:25:10.943Z,34.87
2023-03-02T02:27:39.947Z,36.23
2023-03-02T02:30:08.978Z,32.40
2023-03-02T02:32:38.981Z,38.30
2023-03-02T02:35:11.066Z,55.17
2023-03-02T02:37:42.716Z,44.90
2023-03-02T02:40:17.069Z,31.17
2023-03-02T02:42:47.723Z,39.90
2023-03-02T02:45:20.546Z,29.87
2023-03-02T02:47:48.726Z,29.57
2023-03-02T02:50:20.240Z,40.03
2023-03-02T02:52:49.256Z,44.17
2023-03-02T02:55:21.471Z,38.43
2023-03-02T02:57:51.069Z,36.57
2023-03-02T03:00:20.868Z,34.47
2023-03-02T03:02:50.855Z,38.20
2023-03-02T03:05:18.822Z,36.70
2023-03-02T03:07:46.543Z,37.40
2023-03-02T03:10:17.227Z,37.97
2023-03-02T03:12:44.954Z,26.77
2023-03-02T03:15:14.465Z,21.67
2023-03-02T03:17:42.113Z,35.90
2023-03-02T03:20:11.028Z,34.50
2023-03-02T03:22:39.284Z,27.00
2023-03-02T03:25:07.509Z,35.97
2023-03-02T03:27:35.203Z,29.33
2023-03-02T03:30:02.875Z,33.07
2023-03-02T03:32:35.426Z,32.67
2023-03-02T03:35:03.685Z,30.23
2023-03-02T03:37:31.395Z,32.80
2023-03-02T03:39:59.028Z,29.97
2023-03-02T03:42:26.747Z,32.40
2023-03-02T03:44:54.433Z,29.53
2023-03-02T03:47:22.095Z,31.67
2023-03-02T03:49:51.183Z,32.33
2023-03-02T03:52:18.815Z,25.97
2023-03-02T03:54:46.579Z,23.93
2023-03-02T03:57:14.261Z,22.90
2023-03-02T03:59:42.024Z,27.13
2023-03-02T04:02:09.766Z,27.80
2023-03-02T04:04:37.644Z,22.03
2023-03-02T04:07:06.629Z,28.57
2023-03-02T04:09:37.936Z,24.00
2023-03-02T04:12:07.053Z,30.87
2023-03-02T04:14:34.996Z,32.30
2023-03-02T04:17:05.541Z,33.90
2023-03-02T04:19:33.363Z,36.00
2023-03-02T04:22:03.964Z,26.60
2023-03-02T04:24:33.303Z,28.80
2023-03-02T04:27:00.932Z,30.87
2023-03-02T04:29:28.691Z,33.77
2023-03-02T04:31:56.396Z,28.70
2023-03-02T04:34:25.561Z,33.87
2023-03-02T04:36:53.502Z,28.47
2023-03-02T04:39:21.887Z,26.67
2023-03-02T04:41:50.952Z,30.40
2023-03-02T04:44:19.936Z,30.33
2023-03-02T04:46:48.708Z,35.60
2023-03-02T04:49:18.029Z,31.93
2023-03-02T04:51:47.784Z,33.67
2023-03-02T04:54:18.287Z,28.33
2023-03-02T04:56:51.674Z,32.40
2023-03-02T04:59:25.951Z,25.40
2023-03-02T05:01:54.155Z,33.17
2023-03-02T05:04:22.286Z,34.40
2023-03-02T05:06:50.005Z,19.63
2023-03-02T05:09:17.715Z,35.73
2023-03-02T05:11:45.369Z,36.93
2023-03-02T05:14:13.698Z,26.10
2023-03-02T05:16:43.321Z,32.37
2023-03-02T05:19:12.540Z,37.43
2023-03-02T05:21:40.328Z,21.77
2023-03-02T05:24:08.458Z,25.50
2023-03-02T05:26:36.239Z,30.07
2023-03-02T05:29:03.989Z,30.00
2023-03-02T05:31:34.981Z,33.03
2023-03-02T05:34:05.056Z,30.20
2023-03-02T05:36:33.174Z,24.47
2023-03-02T05:39:01.095Z,34.63
2023-03-02T05:41:29.200Z,31.97
2023-03-02T05:43:56.926Z,33.40
2023-03-02T05:46:24.988Z,27.20
2023-03-02T05:48:52.822Z,25.57
2023-03-02T05:51:22.274Z,29.17
2023-03-02T05:53:50.010Z,17.67
2023-03-02T05:56:17.995Z,24.13
2023-03-02T05:58:45.696Z,25.23
2023-03-02T06:01:15.385Z,31.27
2023-03-02T06:03:43.540Z,29.87
2023-03-02T06:06:14.038Z,32.90
2023-03-02T06:08:43.472Z,30.10
2023-03-02T06:11:11.698Z,29.43
2023-03-02T06:13:40.133Z,30.47
2023-03-02T06:16:08.498Z,31.77
2023-03-02T06:18:36.803Z,32.23
2023-03-02T06:21:05.578Z,31.10
2023-03-02T06:23:33.496Z,27.57
2023-03-02T06:26:08.866Z,24.70
2023-03-02T06:28:49.810Z,27.57
2023-03-02T06:31:19.572Z,30.33
2023-03-02T06:33:47.350Z,37.80
2023-03-02T06:36:16.951Z,36.70
2023-03-02T06:38:44.877Z,36.20
2023-03-02T06:41:13.871Z,39.73
2023-03-02T06:43:41.571Z,38.30
2023-03-02T06:46:09.694Z,39.40
2023-03-02T06:48:37.447Z,23.23
2023-03-02T06:51:05.686Z,35.33
2023-03-02T06:53:33.372Z,35.07
2023-03-02T06:56:01.078Z,34.07
2023-03-02T06:58:30.116Z,34.33
2023-03-02T07:00:58.548Z,31.13
2023-03-02T07:03:26.281Z,29.77
2023-03-02T07:05:54.171Z,37.07
2023-03-02T07:08:21.959Z,33.03
2023-03-02T07:10:49.644Z,22.87
2023-03-02T07:13:17.388Z,39.53
2023-03-02T07:15:46.453Z,34.03
2023-03-02T07:18:14.150Z,36.97
2023-03-02T07:20:41.814Z,36.73
2023-03-02T07:23:09.462Z,40.70
2023-03-02T07:25:37.118Z,23.20
2023-03-02T07:28:05.212Z,36.70
2023-03-02T07:30:32.949Z,39.00
2023-03-02T07:33:02.012Z,36.40
2023-03-02T07:35:29.693Z,27.77
2023-03-02T07:37:57.386Z,32.07
2023-03-02T07:40:25.094Z,29.40
2023-03-02T07:42:52.778Z,35.23
2023-03-02T07:45:24.868Z,34.67
2023-03-02T07:47:52.582Z,29.50
2023-03-02T07:50:21.766Z,31.03
2023-03-02T07:52:49.458Z,31.93
2023-03-02T07:55:17.376Z,38.07
2023-03-02T07:57:45.104Z,38.67
2023-03-02T08:00:13.629Z,40.27
2023-03-02T08:02:41.667Z,38.47
2023-03-02T08:05:09.922Z,34.63
2023-03-02T08:07:39.917Z,28.10
2023-03-02T08:10:08.469Z,29.07
2023-03-02T08:12:36.188Z,37.00
2023-03-02T08:15:05.094Z,36.73
2023-03-02T08:17:32.893Z,30.73
2023-03-02T08:20:00.593Z,23.97
2023-03-02T08:22:28.249Z,30.37
2023-03-02T08:24:57.255Z,32.13
2023-03-02T08:27:25.031Z,30.53
2023-03-02T08:29:54.142Z,23.17
2023-03-02T08:32:21.976Z,22.93
2023-03-02T08:34:51.624Z,23.50
2023-03-02T08:37:19.362Z,25.03
2023-03-02T08:39:47.120Z,21.43
2023-03-02T08:42:16.297Z,26.93
2023-03-02T08:44:44.007Z,26.37
2023-03-02T08:47:11.997Z,31.53
2023-03-02T08:49:39.798Z,24.67
2023-03-02T08:52:07.762Z,30.10
2023-03-02T08:54:35.540Z,28.87
2023-03-02T08:57:03.525Z,29.17
2023-03-02T08:59:32.563Z,32.93
2023-03-02T09:02:00.401Z,31.17
2023-03-02T09:04:28.152Z,25.90
2023-03-02T09:06:56.281Z,30.40
2023-03-02T09:09:24.013Z,27.87
2023-03-02T09:11:51.760Z,24.30
2023-03-02T09:14:19.402Z,24.63
2023-03-02T09:16:49.140Z,23.90
2023-03-02T09:19:16.821Z,25.37
2023-03-02T09:21:44.544Z,18.70
2023-03-02T09:24:12.493Z,19.50
2023-03-02T09:26:40.222Z,19.13
2023-03-02T09:29:08.166Z,25.73
2023-03-02T09:31:37.168Z,23.37
2023-03-02T09:34:06.939Z,21.70
2023-03-02T09:36:35.063Z,22.90
2023-03-02T09:39:08.398Z,23.20
2023-03-02T09:41:49.186Z,23.73
2023-03-02T09:44:43.236Z,15.13
2023-03-02T09:47:29.901Z,25.40
2023-03-02T09:50:11.455Z,19.13
2023-03-02T09:52:42.431Z,22.67
2023-03-02T09:55:15.220Z,18.97
2023-03-02T09:57:43.309Z,22.33
2023-03-02T10:00:19.994Z,28.93
2023-03-02T10:02:50.362Z,23.20
2023-03-02T10:05:23.192Z,21.50
2023-03-02T10:07:51.028Z,19.93
2023-03-02T10:10:26.859Z,18.10
2023-03-02T10:13:07.048Z,22.40
2023-03-02T10:15:39.986Z,17.83
2023-03-02T10:18:16.903Z,20.60
2023-03-02T10:20:50.948Z,19.97
2023-03-02T10:23:29.334Z,22.03
2023-03-02T10:26:02.201Z,15.77
2023-03-02T10:28:34.137Z,20.20
2023-03-02T10:31:09.350Z,21.33
2023-03-02T10:33:38.498Z,21.97
2023-03-02T10:36:20.781Z,21.90
2023-03-02T10:38:48.825Z,20.07
2023-03-02T10:41:19.989Z,20.90
2023-03-02T10:43:49.520Z,14.60
2023-03-02T10:46:17.234Z,19.97
2023-03-02T10:48:49.854Z,21.13
2023-03-02T10:51:29.644Z,22.13
2023-03-02T10:54:05.075Z,17.93
2023-03-02T10:56:33.884Z,23.20
2023-03-02T10:59:04.049Z,20.83
2023-03-02T11:01:33.219Z,20.30
2023-03-02T11:04:02.841Z,21.57
2023-03-02T11:06:32.212Z,23.27
2023-03-02T11:09:02.046Z,18.07
2023-03-02T11:11:30.305Z,14.87
2023-03-02T11:14:09.376Z,21.87
2023-03-02T11:16:37.092Z,22.10
2023-03-02T11:19:06.544Z,22.83
2023-03-02T11:21:39.377Z,20.40
2023-03-02T11:24:12.698Z,15.33
2023-03-02T11:26:46.102Z,13.87
2023-03-02T11:29:22.876Z,19.60
2023-03-02T11:31:52.437Z,20.93
2023-03-02T11:34:25.930Z,21.70
2023-03-02T11:37:05.377Z,21.73
2023-03-02T11:39:46.522Z,17.87
2023-03-02T11:42:23.497Z,20.13
2023-03-02T11:44:51.293Z,17.97
2023-03-02T11:47:19.609Z,19.50
2023-03-02T11:49:53.060Z,19.50
2023-03-02T11:52:24.292Z,18.33
2023-03-02T11:54:55.141Z,19.30
2023-03-02T11:57:26.992Z,18.60
2023-03-02T11:59:55.204Z,17.93
2023-03-02T12:02:23.359Z,18.33
2023-03-02T12:04:51.136Z,18.67
2023-03-02T12:07:23.872Z,18.50
2023-03-02T12:10:00.214Z,19.63
2023-03-02T12:12:42.422Z,16.60
2023-03-02T12:15:39.615Z,20.07
2023-03-02T12:18:40.730Z,22.07
2023-03-02T12:21:10.371Z,16.63
2023-03-02T12:23:55.503Z,10.50
2023-03-02T12:26:28.384Z,15.07
2023-03-02T12:29:02.838Z,15.20
2023-03-02T12:31:43.949Z,18.20
2023-03-02T12:34:26.788Z,19.63
2023-03-02T12:36:56.686Z,18.53
2023-03-02T12:39:32.746Z,17.37
2023-03-02T12:42:21.462Z,14.97
2023-03-02T12:44:52.726Z,13.33
2023-03-02T12:47:27.211Z,15.43
2023-03-02T12:49:57.261Z,15.03
2023-03-02T12:52:29.829Z,16.40
2023-03-02T12:55:07.342Z,16.90
2023-03-02T12:57:35.301Z,12.50
2023-03-02T13:00:04.907Z,16.30
2023-03-02T13:02:34.477Z,16.30
2023-03-02T13:05:03.759Z,15.50
2023-03-02T13:07:36.800Z,11.77
2023-03-02T13:10:10.958Z,13.23
2023-03-02T13:12:38.784Z,14.17
2023-03-02T13:15:15.817Z,12.30
2023-03-02T13:17:44.488Z,13.07
2023-03-02T13:20:15.287Z,13.37
2023-03-02T13:22:43.292Z,12.93
2023-03-02T13:25:28.653Z,14.23
2023-03-02T13:28:00.568Z,12.13
2023-03-02T13:30:30.246Z,10.43
2023-03-02T13:33:02.727Z,12.67
2023-03-02T13:35:31.896Z,13.43
2023-03-02T13:38:03.008Z,12.90
2023-03-02T13:40:35.719Z,12.80
2023-03-02T13:43:08.626Z,12.90
2023-03-02T13:45:36.705Z,13.27
2023-03-02T13:48:15.682Z,13.37
2023-03-02T13:50:52.727Z,19.07
2023-03-02T13:53:20.588Z,16.83
2023-03-02T13:55:50.015Z,15.00
2023-03-02T13:58:19.426Z,14.10
2023-03-02T14:00:47.390Z,12.67
2023-03-02T14:03:24.339Z,12.90
2023-03-02T14:05:52.368Z,13.77
2023-03-02T14:08:20.188Z,14.10
2023-03-02T14:10:50.465Z,13.17
2023-03-02T14:13:21.094Z,14.43
2023-03-02T14:15:50.296Z,17.37
2023-03-02T14:18:29.021Z,14.27
2023-03-02T14:20:57.510Z,16.80
2023-03-02T14:23:25.711Z,16.60
2023-03-02T14:25:55.813Z,16.80
2023-03-02T14:28:26.499Z,15.93
2023-03-02T14:30:56.446Z,17.47
2023-03-02T14:33:24.554Z,13.00
2023-03-02T14:35:54.224Z,15.10
2023-03-02T14:38:22.461Z,16.80
2023-03-02T14:40:50.362Z,18.63
2023-03-02T14:43:21.275Z,17.23
2023-03-02T14:45:48.976Z,17.67
2023-03-02T14:48:16.996Z,14.20
2023-03-02T14:50:46.678Z,15.20
2023-03-02T14:53:17.524Z,16.27
2023-03-02T14:55:45.290Z,18.80
2023-03-02T14:58:15.293Z,13.03
2023-03-02T15:00:45.040Z,18.13
2023-03-02T15:03:16.648Z,14.00
2023-03-02T15:05:58.981Z,18.00
2023-03-02T15:08:28.473Z,19.63
2023-03-02T15:10:56.169Z,15.77
2023-03-02T15:13:23.801Z,13.10
2023-03-02T15:15:53.091Z,17.50
2023-03-02T15:18:20.810Z,14.17
2023-03-02T15:20:48.550Z,18.87
2023-03-02T15:23:16.211Z,15.43
2023-03-02T15:25:43.876Z,16.73
2023-03-02T15:28:11.589Z,19.03
2023-03-02T15:30:39.283Z,18.60
2023-03-02T15:33:08.386Z,12.47
2023-03-02T15:35:39.362Z,20.37
2023-03-02T15:38:07.075Z,16.80
2023-03-02T15:40:34.796Z,15.73
2023-03-02T15:43:02.437Z,13.60
2023-03-02T15:45:30.130Z,14.33
2023-03-02T15:47:57.856Z,16.70
2023-03-02T15:50:26.966Z,17.13
2023-03-02T15:52:56.262Z,17.80
2023-03-02T15:55:24.109Z,18.20
2023-03-02T15:57:51.788Z,15.67
2023-03-02T16:00:20.700Z,17.93
2023-03-02T16:02:49.630Z,18.40
2023-03-02T16:05:17.671Z,18.53
2023-03-02T16:07:46.705Z,19.10
2023-03-02T16:10:16.435Z,18.87
2023-03-02T16:12:44.208Z,19.80
2023-03-02T16:15:12.276Z,16.97
2023-03-02T16:17:39.995Z,19.87
2023-03-02T16:20:08.293Z,20.00
2023-03-02T16:22:36.073Z,15.50
2023-03-02T16:25:05.687Z,19.47
2023-03-02T16:27:33.848Z,10.97
2023-03-02T16:30:01.503Z,19.50
2023-03-02T16:32:30.120Z,17.03
2023-03-02T16:34:57.974Z,17.47
2023-03-02T16:37:25.668Z,18.73
2023-03-02T16:39:53.407Z,19.70
2023-03-02T16:42:22.454Z,19.83
2023-03-02T16:44:51.045Z,16.53
2023-03-02T16:47:18.737Z,22.60
2023-03-02T16:49:46.403Z,13.37
2023-03-02T16:52:14.057Z,22.13
2023-03-02T16:54:41.727Z,23.53
2023-03-02T16:57:09.508Z,25.60
2023-03-02T16:59:38.514Z,21.40
2023-03-02T17:02:06.180Z,22.03
2023-03-02T17:04:36.990Z,21.10
2023-03-02T17:07:04.892Z,20.90
2023-03-02T17:09:34.767Z,19.43
2023-03-02T17:12:02.465Z,25.83
2023-03-02T17:14:30.260Z,23.63
2023-03-02T17:16:59.277Z,24.50
2023-03-02T17:19:29.446Z,21.77
2023-03-02T17:21:58.160Z,21.87
2023-03-02T17:24:25.861Z,24.80
2023-03-02T17:26:53.525Z,20.70
2023-03-02T17:29:21.448Z,26.00
2023-03-02T17:31:49.139Z,21.27
2023-03-02T17:34:18.175Z,25.67
2023-03-02T17:36:46.332Z,24.67
2023-03-02T17:39:14.000Z,26.03
2023-03-02T17:41:41.684Z,25.00
2023-03-02T17:44:09.352Z,22.67
2023-03-02T17:46:37.155Z,27.07
2023-03-02T17:49:04.849Z,40.83
2023-03-02T17:51:33.909Z,39.10
2023-03-02T17:54:01.619Z,27.47
2023-03-02T17:56:30.013Z,24.60
2023-03-02T17:58:59.323Z,25.60
2023-03-02T18:01:27.774Z,25.47
2023-03-02T18:03:55.477Z,26.07
2023-03-02T18:06:23.293Z,25.77
2023-03-02T18:08:53.019Z,24.43
2023-03-02T18:11:22.367Z,25.13
2023-03-02T18:13:50.182Z,24.23
2023-03-02T18:16:17.947Z,24.57
2023-03-02T18:18:45.611Z,25.83
2023-03-02T18:21:13.258Z,25.17
2023-03-02T18:23:41.939Z,22.53
2023-03-02T18:26:12.557Z,24.77
2023-03-02T18:28:41.384Z,23.77
2023-03-02T18:31:09.494Z,24.80
2023-03-02T18:33:37.167Z,27.70
2023-03-02T18:36:05.961Z,27.27
2023-03-02T18:38:34.485Z,26.83
2023-03-02T18:41:03.806Z,26.20
2023-03-02T18:43:35.280Z,26.43
2023-03-02T18:46:04.284Z,23.23
2023-03-02T18:48:32.880Z,24.83
2023-03-02T18:51:00.642Z,27.93
2023-03-02T18:53:28.426Z,24.90
2023-03-02T18:55:56.545Z,24.10
2023-03-02T18:58:25.375Z,26.47
2023-03-02T19:00:55.473Z,27.80
2023-03-02T19:03:24.826Z,28.23
2023-03-02T19:05:57.638Z,28.60
2023-03-02T19:08:26.793Z,25.80
2023-03-02T19:10:55.447Z,30.53
2023-03-02T19:13:23.743Z,27.57
2023-03-02T19:15:52.740Z,24.70
2023-03-02T19:18:25.249Z,30.87
2023-03-02T19:20:54.336Z,28.07
2023-03-02T19:23:23.392Z,27.90
2023-03-02T19:25:51.670Z,31.27
2023-03-02T19:28:21.586Z,34.60
2023-03-02T19:30:49.906Z,28.73
2023-03-02T19:33:17.784Z,33.10
2023-03-02T19:35:46.983Z,33.60
2023-03-02T19:38:14.663Z,26.13
2023-03-02T19:40:42.424Z,30.03
2023-03-02T19:43:10.111Z,33.80
2023-03-02T19:45:38.101Z,31.63
2023-03-02T19:48:06.641Z,32.90
2023-03-02T19:50:34.663Z,31.37
2023-03-02T19:53:03.744Z,32.60
2023-03-02T19:55:31.835Z,35.10
2023-03-02T19:58:02.039Z,38.37
2023-03-02T20:00:31.295Z,39.93
2023-03-02T20:02:59.163Z,48.67
2023-03-02T20:05:28.044Z,27.57
2023-03-02T20:07:55.904Z,29.87
2023-03-02T20:10:31.106Z,35.30
2023-03-02T20:12:59.830Z,31.60
2023-03-02T20:15:28.122Z,27.20
2023-03-02T20:17:55.897Z,31.93
2023-03-02T20:20:26.910Z,30.53
2023-03-02T20:22:54.680Z,27.40
2023-03-02T20:25:22.818Z,27.23
2023-03-02T20:27:52.971Z,29.63
2023-03-02T20:30:24.176Z,29.63
2023-03-02T20:32:51.891Z,34.17
2023-03-02T20:35:20.816Z,24.30
2023-03-02T20:37:49.112Z,29.33
2023-03-02T20:40:17.433Z,32.87
2023-03-02T20:42:45.258Z,25.80
2023-03-02T20:45:14.690Z,28.23
2023-03-02T20:47:43.188Z,24.53
2023-03-02T20:50:15.360Z,25.33
2023-03-02T20:52:43.244Z,32.37
2023-03-02T20:55:11.783Z,30.93
2023-03-02T20:57:39.733Z,25.10
2023-03-02T21:00:09.290Z,27.30
2023-03-02T21:02:38.606Z,20.30
2023-03-02T21:05:07.217Z,20.90
2023-03-02T21:07:35.752Z,25.50
2023-03-02T21:10:03.534Z,30.57
2023-03-02T21:12:33.193Z,26.73
2023-03-02T21:15:02.072Z,22.53
2023-03-02T21:17:30.743Z,31.60
2023-03-02T21:19:59.873Z,21.93
2023-03-02T21:22:27.693Z,26.17
2023-03-02T21:24:55.327Z,21.90
2023-03-02T21:27:23.042Z,27.73
2023-03-02T21:29:50.795Z,24.27
2023-03-02T21:32:18.517Z,20.07
2023-03-02T21:34:46.232Z,20.03
2023-03-02T21:37:15.275Z,25.33
2023-03-02T21:39:42.912Z,24.37
2023-03-02T21:42:10.621Z,28.73
2023-03-02T21:44:38.259Z,29.27
2023-03-02T21:47:06.061Z,19.37
2023-03-02T21:49:33.845Z,31.10
2023-03-02T21:52:01.576Z,25.33
2023-03-02T21:54:30.612Z,31.13
2023-03-02T21:56:58.416Z,29.67
2023-03-02T21:59:26.816Z,30.43
2023-03-02T22:01:54.743Z,21.83
2023-03-02T22:04:22.559Z,29.70
2023-03-02T22:06:50.289Z,32.10
2023-03-02T22:09:17.959Z,29.47
2023-03-02T22:11:47.491Z,20.63
2023-03-02T22:14:17.664Z,25.80
2023-03-02T22:16:47.960Z,26.20
2023-03-02T22:19:26.152Z,19.10
2023-03-02T22:21:54.525Z,19.77
2023-03-02T22:24:24.628Z,17.70
2023-03-02T22:27:00.130Z,21.23
2023-03-02T22:29:30.655Z,19.97
2023-03-02T22:32:07.315Z,23.63
2023-03-02T22:34:37.084Z,24.37
2023-03-02T22:37:12.076Z,19.10
2023-03-02T22:39:42.060Z,29.47
2023-03-02T22:42:15.803Z,19.03
2023-03-02T22:44:43.479Z,28.70
2023-03-02T22:47:16.000Z,29.97
2023-03-02T22:49:43.784Z,27.83
2023-03-02T22:52:17.401Z,33.53
2023-03-02T22:54:46.020Z,32.93
2023-03-02T22:57:30.914Z,25.90
2023-03-02T23:00:29.980Z,21.17
2023-03-02T23:02:58.565Z,29.23
2023-03-02T23:05:28.144Z,31.30
2023-03-02T23:07:59.389Z,26.97
2023-03-02T23:10:27.158Z,30.73
2023-03-02T23:12:56.241Z,24.93
2023-03-02T23:15:24.058Z,31.87
2023-03-02T23:17:51.820Z,32.87
2023-03-02T23:20:19.460Z,30.23
2023-03-02T23:22:47.113Z,27.90
2023-03-02T23:25:15.725Z,29.37
2023-03-02T23:27:43.457Z,26.00
2023-03-02T23:30:17.691Z,32.57
2023-03-02T23:32:45.482Z,27.67
2023-03-02T23:35:13.359Z,29.40
2023-03-02T23:37:41.020Z,28.97
2023-03-02T23:40:10.202Z,22.87
2023-03-02T23:42:38.257Z,26.47
2023-03-02T23:45:06.943Z,27.80
2023-03-02T23:47:35.962Z,28.53
2023-03-02T23:50:08.751Z,23.07
2023-03-02T23:52:36.457Z,28.70
2023-03-02T23:55:04.125Z,26.47
2023-03-02T23:57:31.743Z,19.13
